METAR Data
IDs: Format: Raw Decoded Include TAF

Data at: 1722 UTC 30 Oct 2020

KBEH 301653Z AUTO 00000KT 10SM BKN028 OVC033 04/M01 A3027 RMK AO2 SLP256 T00391011
KBEH 301553Z AUTO 11005KT 10SM OVC026 03/M01 A3026 RMK AO2 RAB18E28 SLP251 P0000 T00331011
KBEH 301512Z AUTO 12003KT 10SM OVC028 04/M01 A3024 RMK AO2 T00391011
KBEH 301453Z AUTO 09003KT 10SM BKN030 OVC041 04/M01 A3023 RMK AO2 SLP242 T00391006 51028
KBEH 301353Z AUTO 00000KT 10SM BKN032 OVC040 03/01 A3021 RMK AO2 SLP234 T00330006
KBEH 301253Z AUTO 00000KT 10SM FEW026 SCT034 OVC044 03/01 A3018 RMK AO2 SLP223 T00280006
KBEH 301242Z AUTO 00000KT 10SM FEW024 BKN039 OVC046 03/00 A3017 RMK AO2 T00280000
KBEH 301211Z AUTO 00000KT 10SM BKN025 BKN034 OVC043 03/00 A3015 RMK AO2 T00280000
KBEH 301153Z AUTO 00000KT 10SM FEW020 BKN034 OVC046 03/00 A3015 RMK AO2 SLP213 60002 70002 I6000 T00280000 10050 20022 53018
KBEH 301053Z AUTO 00000KT 10SM BKN021 BKN029 OVC035 03/01 A3013 RMK AO2 SLP206 T00280006
KBEH 301032Z AUTO 00000KT 10SM FEW021 BKN028 OVC055 03/01 A3011 RMK AO2 T00280006
KBEH 300953Z AUTO 00000KT 10SM SCT038 OVC049 03/01 A3010 RMK AO2 RAE19UPB05E32 SLP197 P0001 I1000 T00280006
KBEH 300936Z AUTO 11003KT 10SM FEW017 BKN035 OVC049 03/00 A3010 RMK AO2 RAE19UPB05E32 P0001 I1000 T00280000
KBEH 300853Z AUTO VRB03KT 3SM -RA BKN019 OVC032 03/M01 A3009 RMK AO2 RAB39 SLP195 P0001 60001 T00281006 51017
KBEH 300846Z AUTO VRB04KT 5SM -RA BKN023 BKN032 OVC042 03/00 A3010 RMK AO2 RAB39 P0000 T00330000
KBEH 300753Z AUTO 07007KT 10SM BKN050 OVC060 04/00 A3008 RMK AO2 RAB18E31 SLP190 P0000 T00390000
KBEH 300653Z AUTO 07004KT 10SM OVC055 04/00 A3006 RMK AO2 SLP184 T00440000
KBEH 300553Z AUTO VRB03KT 10SM OVC050 05/M01 A3004 RMK AO2 SLP178 T00501006 10072 20050 53021
KBEH 300453Z AUTO 10SM SCT042 OVC055 06/M01 A3002 RMK AO2 SLP168 T00561006 401000039
KBEH 300353Z AUTO 07006KT 10SM OVC047 06/M01 A3000 RMK AO2 SLP163 T00611006
KBEH 300253Z AUTO VRB03KT 10SM OVC043 06/M02 A2998 RMK AO2 SLP156 T00611017 53013
KBEH 300153Z AUTO VRB05KT 10SM OVC039 07/M01 A2996 RMK AO2 SLP148 T00671006
KBEH 300053Z AUTO VRB05KT 10SM SCT041 BKN049 OVC060 07/M01 A2995 RMK AO2 SLP144 T00721011
KBEH 292353Z AUTO VRB05KT 10SM BKN038 OVC046 07/M01 A2994 RMK AO2 SLP143 T00721011 10083 20072 51024
KBEH 292253Z AUTO 36008G15KT 330V070 10SM OVC034 08/01 A2992 RMK AO2 SLP137 T00780006
KBEH 292153Z AUTO 01007KT 10SM OVC035 08/01 A2990 RMK AO2 SLP128 T00830006
KBEH 292053Z AUTO VRB03KT 10SM OVC031 08/01 A2987 RMK AO2 SLP119 T00830011 53011
KBEH 291953Z AUTO VRB05KT 10SM OVC021 08/02 A2986 RMK AO2 SLP116 T00780022
KBEH 291853Z AUTO VRB04KT 10SM OVC017 08/03 A2985 RMK AO2 SLP110 T00780033
KBEH 291753Z AUTO VRB06G16KT 10SM OVC023 08/03 A2984 RMK AO2 SLP106 T00830028 10100 20067 51005
KBEH 291653Z AUTO 05008G18KT 010V090 10SM OVC028 09/02 A2983 RMK AO2 SLP105 T00940022
KBEH 291642Z AUTO 06009G18KT 020V080 10SM BKN026 10/03 A2984 RMK AO2 T01000028
KBEH 291553Z AUTO 05007G18KT 010V090 10SM CLR 09/02 A2984 RMK AO2 SLP106 T00890022
KBEH 291453Z AUTO VRB06G17KT 10SM CLR 09/02 A2982 RMK AO2 SLP101 T00890017 50004
KBEH 291353Z AUTO 07005KT 10SM CLR 08/02 A2984 RMK AO2 SLP107 T00830022
KBEH 291253Z AUTO 04003KT 10SM CLR 07/01 A2981 RMK AO2 SLP100 T00670011
KBEH 291153Z AUTO 06004KT 10SM CLR 07/02 A2981 RMK AO2 SLP097 T00670022 10072 20039 56015
KBEH 291053Z AUTO 00000KT 10SM CLR 04/02 A2981 RMK AO2 SLP099 T00390022
KBEH 290953Z AUTO 12003KT 9SM CLR 04/02 A2981 RMK AO2 SLP100 T00390017
KBEH 290853Z AUTO 00000KT 10SM CLR 04/02 A2985 RMK AO2 SLP112 T00440022 56014
KBEH 290753Z AUTO 11003KT 10SM CLR 04/02 A2986 RMK AO2 SLP113 T00440017
KBEH 290653Z AUTO 33004KT 10SM CLR 06/02 A2987 RMK AO2 SLP117 T00560022
KBEH 290553Z AUTO 00000KT 10SM CLR 06/02 A2989 RMK AO2 SLP126 T00560017 10072 20050 58012